sensor_id;sensor_type;location;lat;lon;timestamp;pressure;altitude;pressure_sealevel;temperature;humidity
20825;BME280;10573;50.936;6.978;2023-06-14T00:01:10;100877.78;;;22.01;35.85
20825;BME280;10573;50.936;6.978;2023-06-14T00:03:38;100881.84;;;22.05;35.98
20825;BME280;10573;50.936;6.978;2023-06-14T00:06:04;100879.50;;;22.08;36.55
20825;BME280;10573;50.936;6.978;2023-06-14T00:08:30;100881.03;;;21.91;36.52
20825;BME280;10573;50.936;6.978;2023-06-14T00:10:55;100875.03;;;21.94;36.86
20825;BME280;10573;50.936;6.978;2023-06-14T00:13:21;100879.13;;;21.85;36.93
20825;BME280;10573;50.936;6.978;2023-06-14T00:15:46;100884.03;;;21.89;36.82
20825;BME280;10573;50.936;6.978;2023-06-14T00:18:12;100882.75;;;21.85;36.86
20825;BME280;10573;50.936;6.978;2023-06-14T00:20:38;100891.09;;;21.78;37.23
20825;BME280;10573;50.936;6.978;2023-06-14T00:23:04;100888.97;;;21.67;37.49
20825;BME280;10573;50.936;6.978;2023-06-14T00:25:30;100891.75;;;21.54;38.04
20825;BME280;10573;50.936;6.978;2023-06-14T00:27:56;100904.09;;;21.31;38.33
20825;BME280;10573;50.936;6.978;2023-06-14T00:30:23;100895.78;;;21.24;38.80
20825;BME280;10573;50.936;6.978;2023-06-14T00:32:49;100894.50;;;21.20;38.89
20825;BME280;10573;50.936;6.978;2023-06-14T00:35:15;100901.31;;;21.18;38.84
20825;BME280;10573;50.936;6.978;2023-06-14T00:37:40;100903.03;;;21.32;39.02
20825;BME280;10573;50.936;6.978;2023-06-14T00:40:07;100904.75;;;21.20;38.90
20825;BME280;10573;50.936;6.978;2023-06-14T00:42:32;100903.91;;;21.06;39.36
20825;BME280;10573;50.936;6.978;2023-06-14T00:44:58;100905.38;;;21.08;39.65
20825;BME280;10573;50.936;6.978;2023-06-14T00:47:23;100905.19;;;21.17;39.39
20825;BME280;10573;50.936;6.978;2023-06-14T00:49:50;100910.72;;;21.17;38.96
20825;BME280;10573;50.936;6.978;2023-06-14T00:52:16;100897.47;;;21.05;39.32
20825;BME280;10573;50.936;6.978;2023-06-14T00:54:43;100905.38;;;21.08;39.52
20825;BME280;10573;50.936;6.978;2023-06-14T00:57:12;100908.16;;;21.02;38.92
20825;BME280;10573;50.936;6.978;2023-06-14T00:59:42;100915.38;;;21.03;39.19
20825;BME280;10573;50.936;6.978;2023-06-14T01:02:08;100916.00;;;20.98;39.17
20825;BME280;10573;50.936;6.978;2023-06-14T01:04:34;100917.50;;;20.87;39.04
20825;BME280;10573;50.936;6.978;2023-06-14T01:09:47;100926.88;;;20.93;39.33
20825;BME280;10573;50.936;6.978;2023-06-14T01:12:59;100917.06;;;20.97;39.01
20825;BME280;10573;50.936;6.978;2023-06-14T01:15:30;100923.28;;;20.99;38.98
20825;BME280;10573;50.936;6.978;2023-06-14T01:17:56;100934.97;;;21.01;38.96
20825;BME280;10573;50.936;6.978;2023-06-14T01:20:29;100932.81;;;20.83;39.10
20825;BME280;10573;50.936;6.978;2023-06-14T01:22:56;100929.00;;;20.91;39.29
20825;BME280;10573;50.936;6.978;2023-06-14T01:25:22;100925.97;;;20.72;39.43
20825;BME280;10573;50.936;6.978;2023-06-14T01:28:01;100925.47;;;20.62;39.32
20825;BME280;10573;50.936;6.978;2023-06-14T01:30:29;100930.66;;;20.78;39.47
20825;BME280;10573;50.936;6.978;2023-06-14T01:32:56;100923.47;;;20.84;38.76
20825;BME280;10573;50.936;6.978;2023-06-14T01:35:22;100930.25;;;20.75;39.13
20825;BME280;10573;50.936;6.978;2023-06-14T01:37:48;100927.19;;;20.63;39.21
20825;BME280;10573;50.936;6.978;2023-06-14T01:40:16;100928.91;;;20.64;39.30
20825;BME280;10573;50.936;6.978;2023-06-14T01:42:43;100930.16;;;20.55;39.32
20825;BME280;10573;50.936;6.978;2023-06-14T01:45:11;100929.91;;;20.50;40.07
20825;BME280;10573;50.936;6.978;2023-06-14T01:47:36;100934.72;;;20.34;40.07
20825;BME280;10573;50.936;6.978;2023-06-14T01:50:05;100947.97;;;20.39;40.61
20825;BME280;10573;50.936;6.978;2023-06-14T01:52:30;100936.88;;;20.39;40.63
20825;BME280;10573;50.936;6.978;2023-06-14T01:54:56;100940.72;;;20.38;40.53
20825;BME280;10573;50.936;6.978;2023-06-14T01:57:24;100941.91;;;20.22;40.34
20825;BME280;10573;50.936;6.978;2023-06-14T01:59:50;100939.13;;;20.22;39.70
20825;BME280;10573;50.936;6.978;2023-06-14T02:02:16;100938.97;;;20.30;39.65
20825;BME280;10573;50.936;6.978;2023-06-14T02:04:41;100932.78;;;20.28;39.26
20825;BME280;10573;50.936;6.978;2023-06-14T02:07:07;100931.31;;;20.32;39.58
20825;BME280;10573;50.936;6.978;2023-06-14T02:09:33;100932.19;;;20.39;39.29
20825;BME280;10573;50.936;6.978;2023-06-14T02:11:59;100940.50;;;20.39;39.65
20825;BME280;10573;50.936;6.978;2023-06-14T02:14:24;100929.59;;;20.31;39.94
20825;BME280;10573;50.936;6.978;2023-06-14T02:16:50;100939.41;;;20.34;39.99
20825;BME280;10573;50.936;6.978;2023-06-14T02:19:16;100942.31;;;20.19;40.19
20825;BME280;10573;50.936;6.978;2023-06-14T02:21:42;100939.69;;;20.04;40.24
20825;BME280;10573;50.936;6.978;2023-06-14T02:24:07;100940.53;;;20.04;40.65
20825;BME280;10573;50.936;6.978;2023-06-14T02:26:33;100945.81;;;19.99;40.93
20825;BME280;10573;50.936;6.978;2023-06-14T02:28:58;100952.88;;;20.08;40.80
20825;BME280;10573;50.936;6.978;2023-06-14T02:31:24;100951.69;;;19.61;41.65
20825;BME280;10573;50.936;6.978;2023-06-14T02:33:50;100956.53;;;19.81;41.50
20825;BME280;10573;50.936;6.978;2023-06-14T02:36:15;100950.47;;;19.70;41.81
20825;BME280;10573;50.936;6.978;2023-06-14T02:38:41;100956.16;;;19.62;41.96
20825;BME280;10573;50.936;6.978;2023-06-14T02:41:07;100950.28;;;19.72;41.81
20825;BME280;10573;50.936;6.978;2023-06-14T02:43:32;100956.28;;;19.54;42.48
20825;BME280;10573;50.936;6.978;2023-06-14T02:45:57;100961.75;;;19.47;42.70
20825;BME280;10573;50.936;6.978;2023-06-14T02:48:23;100957.25;;;19.39;42.89
20825;BME280;10573;50.936;6.978;2023-06-14T02:50:48;100960.16;;;19.31;43.13
20825;BME280;10573;50.936;6.978;2023-06-14T02:53:14;100966.03;;;19.28;43.06
20825;BME280;10573;50.936;6.978;2023-06-14T02:55:39;100966.84;;;19.22;43.46
20825;BME280;10573;50.936;6.978;2023-06-14T02:58:05;100961.06;;;19.38;43.40
20825;BME280;10573;50.936;6.978;2023-06-14T03:00:31;100964.47;;;19.19;43.73
20825;BME280;10573;50.936;6.978;2023-06-14T03:02:56;100965.28;;;19.13;43.89
20825;BME280;10573;50.936;6.978;2023-06-14T03:05:22;100967.63;;;19.16;43.91
20825;BME280;10573;50.936;6.978;2023-06-14T03:07:48;100975.66;;;19.10;44.15
20825;BME280;10573;50.936;6.978;2023-06-14T03:10:15;100968.69;;;19.15;44.15
20825;BME280;10573;50.936;6.978;2023-06-14T03:12:41;100974.81;;;19.10;44.37
20825;BME280;10573;50.936;6.978;2023-06-14T03:15:07;100984.19;;;18.94;44.90
20825;BME280;10573;50.936;6.978;2023-06-14T03:17:32;100982.22;;;19.09;44.75
20825;BME280;10573;50.936;6.978;2023-06-14T03:19:59;100983.50;;;18.92;45.11
20825;BME280;10573;50.936;6.978;2023-06-14T03:22:25;100981.44;;;19.16;44.93
20825;BME280;10573;50.936;6.978;2023-06-14T03:24:54;100983.78;;;18.97;45.41
20825;BME280;10573;50.936;6.978;2023-06-14T03:27:20;100980.94;;;18.90;45.43
20825;BME280;10573;50.936;6.978;2023-06-14T03:29:45;100987.59;;;18.96;45.42
20825;BME280;10573;50.936;6.978;2023-06-14T03:32:11;100986.94;;;18.94;45.29
20825;BME280;10573;50.936;6.978;2023-06-14T03:34:36;100995.50;;;18.84;45.62
20825;BME280;10573;50.936;6.978;2023-06-14T03:37:04;100991.50;;;18.87;45.63
20825;BME280;10573;50.936;6.978;2023-06-14T03:39:30;100992.41;;;18.72;45.63
20825;BME280;10573;50.936;6.978;2023-06-14T03:41:55;100999.78;;;18.87;45.63
20825;BME280;10573;50.936;6.978;2023-06-14T03:44:21;100999.72;;;18.95;45.45
20825;BME280;10573;50.936;6.978;2023-06-14T03:46:46;100999.97;;;19.00;45.77
20825;BME280;10573;50.936;6.978;2023-06-14T03:49:12;101001.22;;;18.98;45.88
20825;BME280;10573;50.936;6.978;2023-06-14T03:51:38;101003.41;;;18.87;46.11
20825;BME280;10573;50.936;6.978;2023-06-14T03:54:05;101003.59;;;18.86;45.90
20825;BME280;10573;50.936;6.978;2023-06-14T03:56:30;101005.03;;;18.97;46.10
20825;BME280;10573;50.936;6.978;2023-06-14T03:58:56;101006.66;;;18.91;46.03
20825;BME280;10573;50.936;6.978;2023-06-14T04:01:21;101005.78;;;18.90;46.13
20825;BME280;10573;50.936;6.978;2023-06-14T04:03:52;100999.78;;;18.87;46.17
20825;BME280;10573;50.936;6.978;2023-06-14T04:06:18;101015.59;;;18.93;46.16
20825;BME280;10573;50.936;6.978;2023-06-14T04:08:44;101014.84;;;18.99;46.30
20825;BME280;10573;50.936;6.978;2023-06-14T04:11:11;101021.41;;;18.98;46.38
20825;BME280;10573;50.936;6.978;2023-06-14T04:13:36;101018.03;;;19.03;46.76
20825;BME280;10573;50.936;6.978;2023-06-14T04:16:03;101028.50;;;19.07;46.58
20825;BME280;10573;50.936;6.978;2023-06-14T04:18:28;101029.09;;;19.03;46.61
20825;BME280;10573;50.936;6.978;2023-06-14T04:20:53;101040.56;;;19.21;46.38
20825;BME280;10573;50.936;6.978;2023-06-14T04:23:19;101034.97;;;19.15;45.66
20825;BME280;10573;50.936;6.978;2023-06-14T04:25:44;101034.97;;;19.36;44.33
20825;BME280;10573;50.936;6.978;2023-06-14T04:28:13;101032.13;;;19.44;43.22
20825;BME280;10573;50.936;6.978;2023-06-14T04:30:43;101032.28;;;19.43;43.49
20825;BME280;10573;50.936;6.978;2023-06-14T04:33:10;101031.44;;;19.42;42.51
20825;BME280;10573;50.936;6.978;2023-06-14T04:35:36;101035.38;;;19.55;42.28
20825;BME280;10573;50.936;6.978;2023-06-14T04:38:02;101039.88;;;19.56;42.41
20825;BME280;10573;50.936;6.978;2023-06-14T04:40:30;101039.56;;;19.72;42.25
20825;BME280;10573;50.936;6.978;2023-06-14T04:42:56;101040.78;;;19.85;40.83
20825;BME280;10573;50.936;6.978;2023-06-14T04:45:22;101048.91;;;19.86;41.14
20825;BME280;10573;50.936;6.978;2023-06-14T04:47:48;101042.53;;;19.92;41.87
20825;BME280;10573;50.936;6.978;2023-06-14T04:50:14;101049.84;;;20.00;41.23
20825;BME280;10573;50.936;6.978;2023-06-14T04:52:40;101054.97;;;20.03;40.82
20825;BME280;10573;50.936;6.978;2023-06-14T04:55:06;101055.19;;;20.02;40.88
20825;BME280;10573;50.936;6.978;2023-06-14T04:57:32;101057.47;;;20.20;40.23
20825;BME280;10573;50.936;6.978;2023-06-14T04:59:57;101061.53;;;20.24;39.75
20825;BME280;10573;50.936;6.978;2023-06-14T05:02:26;101059.25;;;20.34;39.47
20825;BME280;10573;50.936;6.978;2023-06-14T05:04:53;101057.38;;;20.41;39.56
20825;BME280;10573;50.936;6.978;2023-06-14T05:07:18;101061.47;;;20.45;39.39
20825;BME280;10573;50.936;6.978;2023-06-14T05:09:45;101070.66;;;20.53;38.90
20825;BME280;10573;50.936;6.978;2023-06-14T05:12:11;101075.50;;;20.72;38.44
20825;BME280;10573;50.936;6.978;2023-06-14T05:14:36;101073.88;;;20.56;38.29
20825;BME280;10573;50.936;6.978;2023-06-14T05:17:02;101066.81;;;20.54;38.67
20825;BME280;10573;50.936;6.978;2023-06-14T05:19:28;101074.47;;;20.52;38.66
20825;BME280;10573;50.936;6.978;2023-06-14T05:21:53;101071.22;;;20.41;38.50
20825;BME280;10573;50.936;6.978;2023-06-14T05:24:19;101069.44;;;20.62;39.17
20825;BME280;10573;50.936;6.978;2023-06-14T05:26:45;101078.03;;;20.74;38.26
20825;BME280;10573;50.936;6.978;2023-06-14T05:29:10;101068.72;;;20.82;38.97
20825;BME280;10573;50.936;6.978;2023-06-14T05:31:36;101071.22;;;20.70;38.80
20825;BME280;10573;50.936;6.978;2023-06-14T05:34:02;101072.09;;;20.77;38.69
20825;BME280;10573;50.936;6.978;2023-06-14T05:36:27;101076.44;;;20.93;38.58
20825;BME280;10573;50.936;6.978;2023-06-14T05:38:53;101067.53;;;20.98;37.71
20825;BME280;10573;50.936;6.978;2023-06-14T05:41:27;101067.56;;;21.18;37.25
20825;BME280;10573;50.936;6.978;2023-06-14T05:43:56;101071.84;;;21.20;37.89
20825;BME280;10573;50.936;6.978;2023-06-14T05:46:23;101069.94;;;21.21;36.87
20825;BME280;10573;50.936;6.978;2023-06-14T05:48:53;101077.81;;;21.24;37.29
20825;BME280;10573;50.936;6.978;2023-06-14T05:51:19;101082.06;;;21.20;37.19
20825;BME280;10573;50.936;6.978;2023-06-14T05:53:48;101085.53;;;21.28;37.28
20825;BME280;10573;50.936;6.978;2023-06-14T05:56:14;101085.56;;;21.35;37.31
20825;BME280;10573;50.936;6.978;2023-06-14T05:58:40;101100.16;;;21.09;37.73
20825;BME280;10573;50.936;6.978;2023-06-14T06:01:06;101098.94;;;21.25;37.45
20825;BME280;10573;50.936;6.978;2023-06-14T06:03:32;101090.88;;;21.37;37.64
20825;BME280;10573;50.936;6.978;2023-06-14T06:05:58;101096.22;;;21.38;36.97
20825;BME280;10573;50.936;6.978;2023-06-14T06:08:24;101094.00;;;21.20;36.80
20825;BME280;10573;50.936;6.978;2023-06-14T06:10:49;101098.75;;;21.33;36.96
20825;BME280;10573;50.936;6.978;2023-06-14T06:13:14;101103.88;;;21.36;37.32
20825;BME280;10573;50.936;6.978;2023-06-14T06:15:41;101109.44;;;21.50;37.21
20825;BME280;10573;50.936;6.978;2023-06-14T06:18:06;101101.41;;;21.55;36.44
20825;BME280;10573;50.936;6.978;2023-06-14T06:20:31;101103.13;;;21.69;36.82
20825;BME280;10573;50.936;6.978;2023-06-14T06:23:00;101107.63;;;21.70;37.09
20825;BME280;10573;50.936;6.978;2023-06-14T06:25:26;101104.22;;;21.82;37.66
20825;BME280;10573;50.936;6.978;2023-06-14T06:27:55;101100.19;;;21.91;36.85
20825;BME280;10573;50.936;6.978;2023-06-14T06:30:23;101100.63;;;21.88;36.70
20825;BME280;10573;50.936;6.978;2023-06-14T06:32:49;101109.34;;;21.85;36.73
20825;BME280;10573;50.936;6.978;2023-06-14T06:35:15;101108.03;;;21.67;36.71
20825;BME280;10573;50.936;6.978;2023-06-14T06:37:42;101107.00;;;21.82;37.73
20825;BME280;10573;50.936;6.978;2023-06-14T06:40:08;101116.38;;;21.81;37.00
20825;BME280;10573;50.936;6.978;2023-06-14T06:42:34;101104.88;;;21.84;37.00
20825;BME280;10573;50.936;6.978;2023-06-14T06:45:00;101115.31;;;21.95;36.96
20825;BME280;10573;50.936;6.978;2023-06-14T06:47:25;101105.31;;;22.01;36.88
20825;BME280;10573;50.936;6.978;2023-06-14T06:49:51;101117.03;;;21.96;36.22
20825;BME280;10573;50.936;6.978;2023-06-14T06:52:16;101125.81;;;21.93;36.22
20825;BME280;10573;50.936;6.978;2023-06-14T06:54:42;101128.38;;;22.01;37.50
20825;BME280;10573;50.936;6.978;2023-06-14T06:57:07;101124.09;;;22.19;37.03
20825;BME280;10573;50.936;6.978;2023-06-14T06:59:33;101127.13;;;22.51;37.28
20825;BME280;10573;50.936;6.978;2023-06-14T07:01:59;101126.88;;;22.59;35.99
20825;BME280;10573;50.936;6.978;2023-06-14T07:04:24;101130.50;;;22.66;35.64
20825;BME280;10573;50.936;6.978;2023-06-14T07:06:50;101125.78;;;22.60;35.78
20825;BME280;10573;50.936;6.978;2023-06-14T07:09:15;101128.38;;;22.55;35.72
20825;BME280;10573;50.936;6.978;2023-06-14T07:11:43;101127.91;;;22.71;35.78
20825;BME280;10573;50.936;6.978;2023-06-14T07:14:08;101123.22;;;22.65;35.48
20825;BME280;10573;50.936;6.978;2023-06-14T07:16:34;101129.88;;;22.51;35.67
20825;BME280;10573;50.936;6.978;2023-06-14T07:19:01;101129.00;;;22.57;36.00
20825;BME280;10573;50.936;6.978;2023-06-14T07:21:26;101130.94;;;22.63;35.58
20825;BME280;10573;50.936;6.978;2023-06-14T07:23:55;101121.72;;;22.62;35.51
20825;BME280;10573;50.936;6.978;2023-06-14T07:26:21;101125.75;;;22.73;35.54
20825;BME280;10573;50.936;6.978;2023-06-14T07:28:47;101134.28;;;22.92;35.29
20825;BME280;10573;50.936;6.978;2023-06-14T07:31:14;101122.72;;;23.02;34.93
20825;BME280;10573;50.936;6.978;2023-06-14T07:33:41;101122.28;;;22.98;34.27
20825;BME280;10573;50.936;6.978;2023-06-14T07:36:06;101131.22;;;23.13;33.57
20825;BME280;10573;50.936;6.978;2023-06-14T07:38:32;101126.53;;;23.21;33.59
20825;BME280;10573;50.936;6.978;2023-06-14T07:40:57;101127.28;;;23.41;33.97
20825;BME280;10573;50.936;6.978;2023-06-14T07:43:23;101126.81;;;23.44;33.57
20825;BME280;10573;50.936;6.978;2023-06-14T07:45:48;101126.16;;;23.49;33.35
20825;BME280;10573;50.936;6.978;2023-06-14T07:48:14;101121.44;;;23.50;31.54
20825;BME280;10573;50.936;6.978;2023-06-14T07:50:39;101123.66;;;23.73;32.53
20825;BME280;10573;50.936;6.978;2023-06-14T07:53:04;101115.03;;;23.88;31.33
20825;BME280;10573;50.936;6.978;2023-06-14T07:55:30;101116.72;;;23.89;31.15
20825;BME280;10573;50.936;6.978;2023-06-14T07:57:57;101118.78;;;23.68;30.58
20825;BME280;10573;50.936;6.978;2023-06-14T08:00:23;101117.66;;;23.76;30.87
20825;BME280;10573;50.936;6.978;2023-06-14T08:02:49;101115.03;;;23.88;30.80
20825;BME280;10573;50.936;6.978;2023-06-14T08:05:15;101117.63;;;23.83;30.31
20825;BME280;10573;50.936;6.978;2023-06-14T08:07:41;101114.94;;;24.01;30.83
20825;BME280;10573;50.936;6.978;2023-06-14T08:10:07;101102.53;;;24.22;29.25
20825;BME280;10573;50.936;6.978;2023-06-14T08:12:33;101117.16;;;24.43;28.74
20825;BME280;10573;50.936;6.978;2023-06-14T08:14:59;101108.94;;;24.48;28.12
20825;BME280;10573;50.936;6.978;2023-06-14T08:17:25;101116.69;;;24.71;27.73
20825;BME280;10573;50.936;6.978;2023-06-14T08:19:50;101123.50;;;24.94;27.43
20825;BME280;10573;50.936;6.978;2023-06-14T08:22:16;101111.13;;;24.90;26.78
20825;BME280;10573;50.936;6.978;2023-06-14T08:24:43;101107.22;;;25.09;27.11
20825;BME280;10573;50.936;6.978;2023-06-14T08:27:09;101109.28;;;25.33;26.72
20825;BME280;10573;50.936;6.978;2023-06-14T08:29:35;101108.28;;;25.45;25.65
20825;BME280;10573;50.936;6.978;2023-06-14T08:32:00;101118.03;;;25.55;26.53
20825;BME280;10573;50.936;6.978;2023-06-14T08:34:27;101119.06;;;25.72;25.31
20825;BME280;10573;50.936;6.978;2023-06-14T08:36:52;101104.19;;;25.78;25.41
20825;BME280;10573;50.936;6.978;2023-06-14T08:39:17;101109.97;;;26.07;25.45
20825;BME280;10573;50.936;6.978;2023-06-14T08:41:46;101104.63;;;26.06;25.56
20825;BME280;10573;50.936;6.978;2023-06-14T08:44:14;101098.06;;;26.24;24.61
20825;BME280;10573;50.936;6.978;2023-06-14T08:46:41;101092.50;;;26.48;24.59
20825;BME280;10573;50.936;6.978;2023-06-14T08:49:08;101101.75;;;26.84;24.42
20825;BME280;10573;50.936;6.978;2023-06-14T08:51:36;101093.72;;;27.40;24.40
20825;BME280;10573;50.936;6.978;2023-06-14T08:54:03;101094.84;;;27.56;23.43
20825;BME280;10573;50.936;6.978;2023-06-14T08:56:30;101090.91;;;27.86;24.22
20825;BME280;10573;50.936;6.978;2023-06-14T08:58:57;101088.22;;;28.25;23.21
20825;BME280;10573;50.936;6.978;2023-06-14T09:01:25;101090.75;;;28.60;23.51
20825;BME280;10573;50.936;6.978;2023-06-14T09:03:52;101089.59;;;28.78;23.07
20825;BME280;10573;50.936;6.978;2023-06-14T09:06:20;101090.66;;;29.66;22.38
20825;BME280;10573;50.936;6.978;2023-06-14T09:08:48;101081.59;;;30.19;21.43
20825;BME280;10573;50.936;6.978;2023-06-14T09:11:16;101081.59;;;30.19;21.02
20825;BME280;10573;50.936;6.978;2023-06-14T09:13:44;101070.91;;;31.11;20.56
20825;BME280;10573;50.936;6.978;2023-06-14T09:16:10;101075.00;;;31.46;20.19
20825;BME280;10573;50.936;6.978;2023-06-14T09:18:37;101078.69;;;31.68;20.07
20825;BME280;10573;50.936;6.978;2023-06-14T09:21:06;101081.22;;;31.69;19.22
20825;BME280;10573;50.936;6.978;2023-06-14T09:23:40;101084.91;;;31.90;19.79
20825;BME280;10573;50.936;6.978;2023-06-14T09:26:10;101091.84;;;30.35;20.14
20825;BME280;10573;50.936;6.978;2023-06-14T09:28:40;101086.16;;;30.25;20.45
20825;BME280;10573;50.936;6.978;2023-06-14T09:31:07;101079.78;;;30.83;19.97
20825;BME280;10573;50.936;6.978;2023-06-14T09:33:33;101088.63;;;29.34;21.70
20825;BME280;10573;50.936;6.978;2023-06-14T09:35:59;101089.28;;;30.71;20.60
20825;BME280;10573;50.936;6.978;2023-06-14T09:38:24;101092.66;;;31.21;20.51
20825;BME280;10573;50.936;6.978;2023-06-14T09:40:50;101094.69;;;31.46;19.95
20825;BME280;10573;50.936;6.978;2023-06-14T09:43:16;101092.81;;;31.83;19.98
20825;BME280;10573;50.936;6.978;2023-06-14T09:45:44;101087.69;;;30.86;20.44
20825;BME280;10573;50.936;6.978;2023-06-14T09:48:11;101090.69;;;30.69;20.70
20825;BME280;10573;50.936;6.978;2023-06-14T09:50:37;101101.28;;;29.86;21.32
20825;BME280;10573;50.936;6.978;2023-06-14T09:53:07;101095.75;;;31.30;20.85
20825;BME280;10573;50.936;6.978;2023-06-14T09:55:36;101091.97;;;31.72;20.10
20825;BME280;10573;50.936;6.978;2023-06-14T09:58:05;101087.63;;;30.80;20.10
20825;BME280;10573;50.936;6.978;2023-06-14T10:00:32;101097.75;;;30.39;20.78
20825;BME280;10573;50.936;6.978;2023-06-14T10:03:03;101089.31;;;30.76;20.62
20825;BME280;10573;50.936;6.978;2023-06-14T10:05:31;101093.28;;;30.75;20.87
20825;BME280;10573;50.936;6.978;2023-06-14T10:08:08;101091.22;;;31.19;19.81
20825;BME280;10573;50.936;6.978;2023-06-14T10:10:34;101093.53;;;31.32;20.59
20825;BME280;10573;50.936;6.978;2023-06-14T10:12:59;101085.19;;;31.68;20.20
20825;BME280;10573;50.936;6.978;2023-06-14T10:16:00;101085.72;;;32.58;19.21
20825;BME280;10573;50.936;6.978;2023-06-14T10:18:33;101089.94;;;32.66;19.44
20825;BME280;10573;50.936;6.978;2023-06-14T10:21:25;101082.69;;;32.23;19.76
20825;BME280;10573;50.936;6.978;2023-06-14T10:23:51;101086.31;;;31.72;19.80
20825;BME280;10573;50.936;6.978;2023-06-14T10:26:19;101078.13;;;32.48;20.16
20825;BME280;10573;50.936;6.978;2023-06-14T10:29:07;101081.25;;;33.33;18.80
20825;BME280;10573;50.936;6.978;2023-06-14T10:31:44;101085.94;;;32.92;19.09
20825;BME280;10573;50.936;6.978;2023-06-14T10:34:11;101080.34;;;32.61;18.60
20825;BME280;10573;50.936;6.978;2023-06-14T10:36:38;101089.19;;;33.70;18.13
20825;BME280;10573;50.936;6.978;2023-06-14T10:39:16;101083.59;;;34.39;17.73
20825;BME280;10573;50.936;6.978;2023-06-14T10:41:52;101087.81;;;34.66;17.24
20825;BME280;10573;50.936;6.978;2023-06-14T10:46:47;101083.53;;;32.19;18.61
20825;BME280;10573;50.936;6.978;2023-06-14T10:49:16;101072.78;;;32.36;19.10
20825;BME280;10573;50.936;6.978;2023-06-14T10:51:45;101081.22;;;32.52;18.69
20825;BME280;10573;50.936;6.978;2023-06-14T10:54:20;101095.81;;;33.55;18.61
20825;BME280;10573;50.936;6.978;2023-06-14T10:56:47;101078.53;;;33.07;18.33
20825;BME280;10573;50.936;6.978;2023-06-14T10:59:14;101079.78;;;32.75;18.56
20825;BME280;10573;50.936;6.978;2023-06-14T11:04:20;101069.75;;;34.62;17.86
20825;BME280;10573;50.936;6.978;2023-06-14T11:06:50;101071.16;;;35.32;17.29
20825;BME280;10573;50.936;6.978;2023-06-14T11:11:46;101082.69;;;33.25;18.80
20825;BME280;10573;50.936;6.978;2023-06-14T11:14:11;101069.94;;;32.62;20.70
20825;BME280;10573;50.936;6.978;2023-06-14T11:16:37;101059.19;;;32.69;20.47
20825;BME280;10573;50.936;6.978;2023-06-14T11:19:02;101065.13;;;32.52;20.22
20825;BME280;10573;50.936;6.978;2023-06-14T11:21:33;101068.16;;;32.92;19.94
20825;BME280;10573;50.936;6.978;2023-06-14T11:23:59;101069.59;;;33.44;19.92
20825;BME280;10573;50.936;6.978;2023-06-14T11:26:31;101071.31;;;32.65;20.45
20825;BME280;10573;50.936;6.978;2023-06-14T11:29:00;101075.72;;;33.02;21.00
20825;BME280;10573;50.936;6.978;2023-06-14T11:31:29;101070.06;;;34.31;19.74
20825;BME280;10573;50.936;6.978;2023-06-14T11:33:56;101069.88;;;34.76;19.23
20825;BME280;10573;50.936;6.978;2023-06-14T11:36:22;101074.31;;;34.28;19.59
20825;BME280;10573;50.936;6.978;2023-06-14T11:38:48;101070.88;;;33.12;20.74
20825;BME280;10573;50.936;6.978;2023-06-14T11:41:13;101065.94;;;32.78;21.28
20825;BME280;10573;50.936;6.978;2023-06-14T11:43:39;101068.78;;;32.63;21.34
20825;BME280;10573;50.936;6.978;2023-06-14T11:46:12;101061.72;;;32.60;21.14
20825;BME280;10573;50.936;6.978;2023-06-14T11:48:43;101058.41;;;33.69;20.19
20825;BME280;10573;50.936;6.978;2023-06-14T11:51:09;101061.22;;;33.29;20.43
20825;BME280;10573;50.936;6.978;2023-06-14T11:53:34;101053.22;;;35.18;19.34
20825;BME280;10573;50.936;6.978;2023-06-14T11:56:01;101052.31;;;35.79;18.14
20825;BME280;10573;50.936;6.978;2023-06-14T11:58:26;101053.09;;;35.66;18.38
20825;BME280;10573;50.936;6.978;2023-06-14T12:00:53;101050.84;;;34.33;19.14
20825;BME280;10573;50.936;6.978;2023-06-14T12:03:23;101048.25;;;35.09;18.41
20825;BME280;10573;50.936;6.978;2023-06-14T12:05:48;101048.13;;;34.71;18.53
20825;BME280;10573;50.936;6.978;2023-06-14T12:08:14;101055.75;;;32.93;19.94
20825;BME280;10573;50.936;6.978;2023-06-14T12:10:42;101051.72;;;33.54;19.60
20825;BME280;10573;50.936;6.978;2023-06-14T12:13:09;101064.22;;;36.28;17.07
20825;BME280;10573;50.936;6.978;2023-06-14T12:15:35;101061.69;;;37.02;16.55
20825;BME280;10573;50.936;6.978;2023-06-14T12:18:00;101058.22;;;37.55;16.32
20825;BME280;10573;50.936;6.978;2023-06-14T12:20:29;101059.69;;;37.53;16.52
20825;BME280;10573;50.936;6.978;2023-06-14T12:22:58;101054.91;;;39.02;14.99
20825;BME280;10573;50.936;6.978;2023-06-14T12:25:26;101048.97;;;38.81;15.16
20825;BME280;10573;50.936;6.978;2023-06-14T12:27:55;101055.91;;;38.25;15.70
20825;BME280;10573;50.936;6.978;2023-06-14T12:30:21;101061.28;;;35.68;17.70
20825;BME280;10573;50.936;6.978;2023-06-14T12:32:47;101063.78;;;34.39;18.77
20825;BME280;10573;50.936;6.978;2023-06-14T12:35:13;101062.06;;;34.68;18.65
20825;BME280;10573;50.936;6.978;2023-06-14T12:37:39;101064.06;;;34.62;18.66
20825;BME280;10573;50.936;6.978;2023-06-14T12:40:05;101067.03;;;35.43;18.04
20825;BME280;10573;50.936;6.978;2023-06-14T12:42:32;101060.31;;;36.99;16.95
20825;BME280;10573;50.936;6.978;2023-06-14T12:44:59;101062.06;;;37.37;16.88
20825;BME280;10573;50.936;6.978;2023-06-14T12:47:24;101064.91;;;37.96;16.28
20825;BME280;10573;50.936;6.978;2023-06-14T12:49:50;101063.31;;;37.44;16.74
20825;BME280;10573;50.936;6.978;2023-06-14T12:52:15;101069.78;;;38.90;15.51
20825;BME280;10573;50.936;6.978;2023-06-14T12:54:41;101062.22;;;39.78;14.71
20825;BME280;10573;50.936;6.978;2023-06-14T12:57:06;101059.78;;;38.70;15.07
20825;BME280;10573;50.936;6.978;2023-06-14T12:59:32;101064.72;;;37.92;15.85